Latest Weather Observations for Rowley Shoals

IDW60801

Issued at 11:34 pm WST Tuesday 28 March 2017 (issued every 30 minutes, with the page automatically refreshed every 10 minutes)

About weather observations | Map of weather stations | Latest weather observations for WA | Other Formats
Station Details ID: 200713 Name: ROWLEY SHOALS Lat: -17.52 Lon: 118.95 Height: 0.0 m
Data from the previous 72 hours. | See also: Recent months at Rowley Shoals
Date/Time
WST
Temp
°C
App
Temp
°C
Dew
Point
°C
Rel
Hum
%
Delta-T
°C
Wind Press
QNH
hPa
Press
MSL
hPa
Rain since
9am
mm
Dir  Spd
km/h
Gust
km/h
Spd
kts
Gust
kts
28/11:30pm 28.2 - - - - WNW 20 24 11 13 1009.3 1009.3 -
28/11:00pm 28.3 - - - - WNW 20 24 11 13 1009.6 1009.4 -
28/10:30pm 28.3 - - - - W 17 22 9 12 1009.6 1009.6 -
28/10:00pm 28.3 - - - - WNW 17 22 9 12 1009.5 1009.4 -
28/09:30pm 28.3 - - - - W 17 20 9 11 1009.8 1009.8 -
28/09:00pm 28.3 - - - - W 19 24 10 13 1009.5 1009.5 -
28/08:30pm 28.3 - - - - W 17 24 9 13 1009.5 1009.5 -
28/08:00pm 28.3 - - - - W 19 22 10 12 1009.4 1009.4 -
28/07:30pm 28.4 - - - - W 19 20 10 11 1009.1 1009.1 -
28/07:00pm 28.5 - - - - W 20 24 11 13 1008.8 1008.8 -
28/06:30pm 28.5 - - - - W 17 20 9 11 1008.6 1008.6 -
28/06:00pm 28.5 - - - - W 17 20 9 11 1008.2 1008.2 -
28/05:30pm 28.6 - - - - W 17 20 9 11 1008.0 1008.0 -
28/05:00pm 28.6 - - - - W 19 22 10 12 1007.9 1007.8 -
28/04:30pm 28.9 - - - - WNW 19 22 10 12 1007.7 1007.7 -
28/04:00pm 28.8 - - - - WNW 20 26 11 14 1007.6 1007.5 -
28/03:30pm 28.5 - - - - WNW 22 28 12 15 1007.5 1007.5 -
28/03:00pm 28.6 - - - - WNW 22 28 12 15 1007.4 1007.3 -
28/02:30pm 28.7 - - - - WNW 24 30 13 16 1007.6 1007.6 -
28/02:00pm 28.5 - - - - WNW 24 28 13 15 1007.9 1007.7 -
28/01:30pm 28.4 - - - - NW 22 26 12 14 1008.3 1008.3 -
28/01:00pm 28.4 - - - - NW 20 26 11 14 1008.9 1008.7 -
28/12:30pm 28.4 - - - - NW 19 22 10 12 1009.4 1009.4 -
28/12:00pm 28.3 - - - - NW 19 22 10 12 1009.7 1009.6 -
28/11:30am 28.4 - - - - NW 19 20 10 11 1010.1 1010.1 -
28/11:00am 28.4 - - - - NW 20 22 11 12 1010.5 1010.3 -
28/10:30am 28.3 - - - - NW 15 17 8 9 1010.9 1010.9 -
28/10:00am 28.3 - - - - WNW 13 15 7 8 1011.0 1010.8 -
28/09:30am 28.4 - - - - WNW 11 13 6 7 1011.3 1011.3 -
28/09:00am 28.4 - - - - NW 13 15 7 8 1011.2 1011.1 -
28/08:30am 28.3 - - - - NW 9 13 5 7 1011.0 1011.0 -
28/08:00am 28.7 - - - - NW 11 13 6 7 1010.7 1010.6 -
28/07:30am 28.4 - - - - NW 11 13 6 7 1010.4 1010.4 -
28/07:00am 28.3 - - - - WNW 7 9 4 5 1010.3 1010.2 -
28/06:30am 28.1 - - - - W 7 9 4 5 1010.1 1010.1 -
28/06:00am 28.3 - - - - W 11 13 6 7 1009.8 1009.8 -
28/05:30am 28.3 - - - - WSW 9 13 5 7 1009.7 1009.7 -
28/05:00am 28.2 - - - - W 11 15 6 8 1009.1 1009.1 -
28/04:30am 28.3 - - - - WSW 11 13 6 7 1008.8 1008.8 -
28/04:00am 28.3 - - - - W 11 13 6 7 1008.8 1008.7 -
28/03:30am 28.3 - - - - W 13 15 7 8 1008.6 1008.6 -
28/03:00am 28.3 - - - - W 13 15 7 8 1008.6 1008.5 -
28/02:30am 28.3 - - - - W 13 17 7 9 1008.7 1008.7 -
28/02:00am 28.4 - - - - W 13 17 7 9 1008.8 1008.7 -
28/01:30am 28.5 - - - - WNW 13 15 7 8 1009.4 1009.4 -
28/01:00am 28.5 - - - - W 11 15 6 8 1009.6 1009.4 -
28/12:30am 28.6 - - - - W 13 15 7 8 1009.7 1009.7 -
28/12:00am 28.6 - - - - W 11 13 6 7 1009.9 1009.7 -
 
Date/Time
WST
Temp
°C
App
Temp
°C
Dew
Point
°C
Rel
Hum
%
Delta-T
°C
Wind Press
QNH
hPa
Press
MSL
hPa
Rain since
9am
mm
Dir  Spd
km/h
Gust
km/h
Spd
kts
Gust
kts
27/11:30pm 28.6 - - - - W 13 19 7 10 1010.1 1010.1 -
27/11:00pm 28.7 - - - - W 17 20 9 11 1010.1 1010.1 -
27/10:30pm 28.7 - - - - W 19 20 10 11 1010.1 1010.1 -
27/10:00pm 28.7 - - - - W 19 20 10 11 1010.1 1010.0 -
27/09:30pm 28.7 - - - - W 19 22 10 12 1009.8 1009.8 -
27/09:00pm 28.6 - - - - W 19 22 10 12 1009.6 1009.6 -
27/08:30pm 28.7 - - - - WNW 17 20 9 11 1009.6 1009.6 -
27/08:00pm 28.8 - - - - WNW 19 20 10 11 1009.3 1009.4 -
27/07:30pm 28.8 - - - - WNW 17 19 9 10 1008.8 1008.8 -
27/07:00pm 28.7 - - - - WNW 19 22 10 12 1008.6 1008.5 -
27/06:30pm 28.8 - - - - WNW 22 26 12 14 1008.1 1008.1 -
27/06:00pm 28.8 - - - - WNW 22 26 12 14 1007.7 1007.7 -
27/05:30pm 29.0 - - - - WNW 22 24 12 13 1007.5 1007.5 -
27/05:00pm 29.0 - - - - WNW 20 24 11 13 1007.6 1007.4 -
27/04:30pm 29.3 - - - - WNW 20 24 11 13 1007.6 1007.6 -
27/04:00pm 29.2 - - - - WNW 19 20 10 11 1007.6 1007.5 -
27/03:30pm 29.1 - - - - WNW 20 26 11 14 1007.6 1007.6 -
27/03:00pm 29.0 - - - - WNW 19 24 10 13 1007.8 1007.6 -
27/02:30pm 29.0 - - - - WNW 17 20 9 11 1008.1 1008.1 -
27/02:00pm 28.9 - - - - WNW 17 20 9 11 1008.2 1008.1 -
27/01:30pm 28.8 - - - - NW 17 20 9 11 1008.9 1008.9 -
27/01:00pm 28.6 - - - - NW 15 20 8 11 1009.2 1009.1 -
27/12:30pm 28.2 - - - - NW 20 24 11 13 1009.0 1009.0 -
27/12:00pm 28.3 - - - - NNW 19 20 10 11 1009.4 1009.2 -
27/11:30am 28.2 - - - - NW 20 22 11 12 1009.7 1009.7 -
27/11:00am 28.2 - - - - NNW 22 26 12 14 1010.0 1009.8 -
27/10:30am 28.5 - - - - NNW 20 24 11 13 1010.1 1010.1 -
27/10:00am 28.2 - - - - NW 22 26 12 14 1010.2 1010.1 -
27/09:30am 28.5 - - - - NW 20 24 11 13 1010.1 1010.1 -
27/09:00am 28.4 - - - - NNW 20 24 11 13 1010.1 1010.0 -
27/08:30am 28.2 - - - - NNW 20 22 11 12 1009.7 1009.7 -
27/08:00am 28.1 - - - - NNW 26 30 14 16 1009.1 1009.2 -
27/07:30am 28.3 - - - - N 20 24 11 13 1008.8 1008.8 -
27/07:00am 28.2 - - - - NNW 20 22 11 12 1008.5 1008.4 -
27/06:30am 28.1 - - - - NNW 20 24 11 13 1008.3 1008.3 -
27/06:00am 28.2 - - - - NNW 15 17 8 9 1008.0 1008.0 -
27/05:30am 27.8 - - - - NNW 17 20 9 11 1007.4 1007.4 -
27/05:00am 27.7 - - - - NNW 15 17 8 9 1007.3 1007.3 -
27/04:30am 27.5 - - - - N 13 17 7 9 1007.1 1007.1 -
27/04:00am 27.5 - - - - N 11 13 6 7 1007.2 1007.1 -
27/03:30am 27.5 - - - - N 13 15 7 8 1007.4 1007.4 -
27/03:00am 27.5 - - - - N 11 13 6 7 1007.3 1007.3 -
27/02:30am 27.2 - - - - N 9 11 5 6 1007.3 1007.3 -
27/02:00am 26.9 - - - - NNE 9 11 5 6 1007.5 1007.4 -
27/01:30am 26.5 - - - - NE 9 11 5 6 1007.7 1007.7 -
27/01:00am 26.4 - - - - ESE 11 13 6 7 1007.8 1007.6 -
27/12:30am 26.2 - - - - SSE 22 26 12 14 1008.3 1008.3 -
27/12:00am 26.3 - - - - SE 20 26 11 14 1008.4 1008.3 -
 
Date/Time
WST
Temp
°C
App
Temp
°C
Dew
Point
°C
Rel
Hum
%
Delta-T
°C
Wind Press
QNH
hPa
Press
MSL
hPa
Rain since
9am
mm
Dir  Spd
km/h
Gust
km/h
Spd
kts
Gust
kts
26/11:30pm 25.8 - - - - SE 30 35 16 19 1008.5 1008.5 -
26/11:00pm 26.7 - - - - S 24 33 13 18 1008.2 1008.0 -
26/10:49pm 27.7 - - - - SSW 37 43 20 23 1008.5 1008.5 -
26/10:30pm 28.5 - - - - SW 26 28 14 15 1008.5 1008.5 -
26/10:00pm 29.2 - - - - WSW 13 17 7 9 1008.9 1008.6 -
26/09:30pm 29.1 - - - - SW 17 20 9 11 1008.6 1008.6 -
26/09:00pm 29.1 - - - - SW 19 20 10 11 1008.2 1008.4 -
26/08:30pm 29.1 - - - - SSW 19 24 10 13 1007.9 1007.9 -
26/08:00pm 29.1 - - - - S 17 20 9 11 1007.6 1007.7 -
26/07:30pm 29.2 - - - - SSE 19 24 10 13 1007.6 1007.6 -
26/07:00pm 29.1 - - - - S 17 22 9 12 1006.8 1006.9 -
26/06:30pm 28.7 - - - - S 19 26 10 14 1006.2 1006.2 -
26/06:00pm 28.7 - - - - S 19 22 10 12 1006.1 1006.1 -
26/05:30pm 28.7 - - - - S 19 22 10 12 1005.8 1005.8 -
26/05:00pm 28.5 - - - - SSE 19 24 10 13 1005.6 1005.6 -
26/04:30pm 28.8 - - - - SSW 24 28 13 15 1005.8 1005.8 -
26/04:00pm 29.6 - - - - SSW 22 26 12 14 1005.7 1005.7 -
26/03:30pm 29.4 - - - - SSW 22 26 12 14 1005.9 1005.9 -
26/03:00pm 29.6 - - - - SSW 20 24 11 13 1005.8 1005.8 -
26/02:30pm 29.5 - - - - SSW 20 22 11 12 1005.9 1005.9 -
26/02:00pm 29.5 - - - - SSW 20 22 11 12 1006.0 1005.8 -
26/01:30pm 29.2 - - - - SSW 20 22 11 12 1006.1 1006.1 -
26/01:00pm 29.3 - - - - SSW 20 24 11 13 1006.3 1006.2 -
26/12:30pm 29.1 - - - - SSW 20 24 11 13 1006.6 1006.6 -
26/12:00pm 29.0 - - - - SSW 20 24 11 13 1006.8 1006.6 -
26/11:30am 29.1 - - - - SSW 17 20 9 11 1007.4 1007.4 -
26/11:00am 29.0 - - - - S 19 22 10 12 1007.7 1007.5 -
26/10:30am 29.3 - - - - S 17 20 9 11 1007.6 1007.6 -
26/10:00am 29.0 - - - - S 19 22 10 12 1007.8 1007.7 -
26/09:30am 29.2 - - - - S 17 20 9 11 1008.2 1008.2 -
26/09:00am 29.2 - - - - S 17 20 9 11 1008.1 1008.0 -
26/08:30am 28.9 - - - - S 19 24 10 13 1007.8 1007.8 -
26/08:00am 28.7 - - - - S 19 24 10 13 1007.7 1007.6 -
26/07:30am 28.7 - - - - S 20 24 11 13 1007.5 1007.5 -
26/07:00am 28.6 - - - - SSW 19 22 10 12 1007.3 1007.3 -
26/06:30am 28.5 - - - - SSW 20 24 11 13 1007.1 1007.1 -
26/06:00am 28.5 - - - - SW 22 24 12 13 1006.9 1006.9 -
26/05:30am 28.2 - - - - SW 22 26 12 14 1006.6 1006.6 -
26/05:00am 28.2 - - - - SW 20 24 11 13 1006.2 1006.1 -
26/04:30am 28.3 - - - - SW 20 22 11 12 1006.4 1006.4 -
26/04:00am 28.3 - - - - SW 20 22 11 12 1006.5 1006.3 -
26/03:30am 28.2 - - - - WSW 19 20 10 11 1006.6 1006.6 -
26/03:00am 28.2 - - - - SW 17 20 9 11 1006.6 1006.3 -
26/02:30am 28.2 - - - - SW 19 26 10 14 1006.7 1006.7 -
26/02:00am 28.2 - - - - SW 19 20 10 11 1006.8 1006.7 -
26/01:30am 28.3 - - - - WSW 15 17 8 9 1007.2 1007.2 -
26/01:00am 28.3 - - - - WSW 17 19 9 10 1007.4 1007.2 -
26/12:30am 28.3 - - - - WSW 19 24 10 13 1007.7 1007.7 -
26/12:00am 28.7 - - - - WSW 19 24 10 13 1008.1 1007.9 -

Other Formats:

Comma delimited format used in spreadsheet applications
http://www.bom.gov.au/fwo/IDW60801/IDW60801.94207.axf

JavaScript Object Notation format (JSON) in row-major order
http://www.bom.gov.au/fwo/IDW60801/IDW60801.94207.json